createdAt,value
2019-03-24T00:01:41.522Z,2.08
2019-03-24T00:04:08.757Z,2.09
2019-03-24T00:06:37.897Z,1.97
2019-03-24T00:09:06.735Z,1.89
2019-03-24T00:11:35.707Z,1.81
2019-03-24T00:14:03.480Z,1.83
2019-03-24T00:16:31.621Z,1.77
2019-03-24T00:18:59.339Z,1.77
2019-03-24T00:21:28.005Z,1.71
2019-03-24T00:23:56.039Z,1.69
2019-03-24T00:26:24.051Z,1.74
2019-03-24T00:28:52.183Z,1.74
2019-03-24T00:31:20.620Z,1.64
2019-03-24T00:33:49.548Z,1.65
2019-03-24T00:36:17.953Z,1.70
2019-03-24T00:38:46.008Z,1.66
2019-03-24T00:41:14.120Z,1.62
2019-03-24T00:43:42.455Z,1.65
2019-03-24T00:46:11.404Z,1.62
2019-03-24T00:48:40.037Z,1.51
2019-03-24T00:51:08.336Z,1.46
2019-03-24T00:53:36.484Z,1.46
2019-03-24T00:56:04.589Z,1.36
2019-03-24T00:58:32.316Z,1.39
2019-03-24T01:01:00.325Z,1.33
2019-03-24T01:03:30.940Z,1.23
2019-03-24T01:06:01.702Z,1.17
2019-03-24T01:08:29.443Z,1.18
2019-03-24T01:10:57.516Z,1.15
2019-03-24T01:13:25.999Z,1.15
2019-03-24T01:15:54.716Z,1.12
2019-03-24T01:18:23.336Z,0.98
2019-03-24T01:20:51.126Z,0.94
2019-03-24T01:23:19.267Z,0.89
2019-03-24T01:25:47.369Z,0.93
2019-03-24T01:28:17.540Z,1.06
2019-03-24T01:30:45.490Z,1.07
2019-03-24T01:33:13.518Z,0.98
2019-03-24T01:35:42.363Z,0.87
2019-03-24T01:38:10.109Z,0.83
2019-03-24T01:40:37.851Z,0.81
2019-03-24T01:43:06.018Z,0.82
2019-03-24T01:45:33.763Z,0.81
2019-03-24T01:48:01.483Z,0.73
2019-03-24T01:50:29.527Z,0.77
2019-03-24T01:52:58.019Z,0.79
2019-03-24T01:55:27.767Z,0.80
2019-03-24T01:57:56.184Z,0.74
2019-03-24T02:00:26.820Z,0.66
2019-03-24T02:02:55.884Z,0.59
2019-03-24T02:05:24.211Z,0.59
2019-03-24T02:07:52.232Z,0.59
2019-03-24T02:10:20.431Z,0.54
2019-03-24T02:12:50.275Z,0.66
2019-03-24T02:15:18.115Z,0.87
2019-03-24T02:17:45.976Z,1.00
2019-03-24T02:20:28.321Z,0.94
2019-03-24T02:22:57.207Z,0.98
2019-03-24T02:25:25.657Z,0.64
2019-03-24T02:27:54.516Z,0.64
2019-03-24T02:30:23.040Z,0.81
2019-03-24T02:32:51.038Z,0.68
2019-03-24T02:35:19.180Z,0.55
2019-03-24T02:37:47.374Z,0.56
2019-03-24T02:40:17.359Z,0.67
2019-03-24T02:42:45.908Z,0.55
2019-03-24T02:45:14.007Z,0.54
2019-03-24T02:47:42.406Z,0.75
2019-03-24T02:50:10.449Z,0.68
2019-03-24T02:52:41.976Z,0.54
2019-03-24T02:55:11.814Z,0.46
2019-03-24T02:57:42.657Z,0.40
2019-03-24T03:00:09.966Z,0.37
2019-03-24T03:02:38.271Z,0.36
2019-03-24T03:05:07.671Z,0.18
2019-03-24T03:07:36.796Z,0.18
2019-03-24T03:10:07.505Z,0.10
2019-03-24T03:12:34.548Z,-0.10
2019-03-24T03:15:02.611Z,-0.23
2019-03-24T03:17:30.898Z,-0.29
2019-03-24T03:19:59.165Z,-0.13
2019-03-24T03:22:27.561Z,0.11
2019-03-24T03:24:55.538Z,0.17
2019-03-24T03:27:24.187Z,0.15
2019-03-24T03:29:52.857Z,0.16
2019-03-24T03:32:23.294Z,0.08
2019-03-24T03:34:51.702Z,0.12
2019-03-24T03:37:19.805Z,0.05
2019-03-24T03:39:47.795Z,0.01
2019-03-24T03:42:17.172Z,0.12
2019-03-24T03:44:45.609Z,0.05
2019-03-24T03:47:13.695Z,-0.11
2019-03-24T03:49:41.437Z,-0.24
2019-03-24T03:52:09.367Z,-0.30
2019-03-24T03:54:37.284Z,-0.34
2019-03-24T03:57:06.369Z,-0.33
2019-03-24T03:59:36.113Z,-0.35
2019-03-24T04:02:04.188Z,-0.71
2019-03-24T04:04:32.365Z,-0.74
2019-03-24T04:07:00.679Z,-0.75
2019-03-24T04:09:29.189Z,-0.80
2019-03-24T04:11:57.309Z,-0.83
2019-03-24T04:14:25.758Z,-0.83
2019-03-24T04:17:06.034Z,-0.76
2019-03-24T04:19:24.545Z,-0.62
2019-03-24T04:21:54.155Z,-0.56
2019-03-24T04:24:22.230Z,-0.64
2019-03-24T04:26:50.939Z,-0.62
2019-03-24T04:29:19.274Z,-0.64
2019-03-24T04:31:48.177Z,-0.67
2019-03-24T04:34:16.011Z,-0.65
2019-03-24T04:36:44.157Z,-0.63
2019-03-24T04:39:12.073Z,-0.66
2019-03-24T04:41:41.015Z,-0.63
2019-03-24T04:44:10.053Z,-0.70
2019-03-24T04:46:37.794Z,-0.76
2019-03-24T04:49:05.826Z,-0.68
2019-03-24T04:51:33.863Z,-0.70
2019-03-24T04:54:02.279Z,-0.56
2019-03-24T04:56:31.265Z,-0.56
2019-03-24T04:58:59.956Z,-0.33
2019-03-24T05:01:27.665Z,-0.36
2019-03-24T05:03:56.035Z,-0.36
2019-03-24T05:06:24.136Z,-0.45
2019-03-24T05:08:53.541Z,-0.56
2019-03-24T05:11:21.721Z,-0.64
2019-03-24T05:13:50.427Z,-0.70
2019-03-24T05:16:19.146Z,-0.68
2019-03-24T05:18:46.907Z,-0.65
2019-03-24T05:21:15.028Z,-0.62
2019-03-24T05:23:43.231Z,-0.41
2019-03-24T05:26:11.879Z,-0.18
2019-03-24T05:28:39.660Z,-0.04
2019-03-24T05:31:07.723Z,-0.02
2019-03-24T05:33:35.518Z,0.11
2019-03-24T05:36:03.546Z,0.30
2019-03-24T05:38:31.958Z,0.27
2019-03-24T05:40:59.853Z,0.21
2019-03-24T05:43:28.311Z,0.22
2019-03-24T05:45:56.297Z,0.22
2019-03-24T05:48:25.250Z,0.27
2019-03-24T05:50:53.414Z,0.42
2019-03-24T05:53:22.532Z,0.54
2019-03-24T05:55:50.315Z,0.62
2019-03-24T05:58:18.740Z,0.72
2019-03-24T06:00:46.768Z,0.87
2019-03-24T06:03:15.607Z,1.02
2019-03-24T06:05:45.885Z,1.25
2019-03-24T06:08:13.943Z,1.46
2019-03-24T06:10:43.140Z,1.64
2019-03-24T06:13:12.943Z,1.80
2019-03-24T06:15:40.985Z,1.97
2019-03-24T06:18:09.095Z,2.17
2019-03-24T06:20:37.000Z,2.37
2019-03-24T06:23:05.573Z,2.58
2019-03-24T06:25:35.030Z,2.70
2019-03-24T06:28:04.152Z,2.88
2019-03-24T06:30:32.980Z,3.03
2019-03-24T06:33:00.751Z,3.16
2019-03-24T06:35:29.379Z,3.37
2019-03-24T06:37:57.735Z,3.55
2019-03-24T06:40:26.079Z,3.60
2019-03-24T06:42:55.496Z,3.83
2019-03-24T06:45:28.534Z,3.97
2019-03-24T06:47:58.110Z,4.19
2019-03-24T06:50:26.613Z,4.38
2019-03-24T06:52:54.493Z,4.58
2019-03-24T06:55:22.506Z,4.82
2019-03-24T06:57:50.305Z,4.92
2019-03-24T07:00:18.347Z,5.13
2019-03-24T07:02:46.580Z,5.22
2019-03-24T07:05:16.602Z,5.32
2019-03-24T07:07:45.504Z,5.37
2019-03-24T07:10:13.501Z,5.63
2019-03-24T07:12:41.864Z,5.79
2019-03-24T07:15:10.477Z,5.69
2019-03-24T07:17:38.267Z,5.98
2019-03-24T07:20:07.481Z,6.16
2019-03-24T07:22:35.521Z,6.30
2019-03-24T07:25:07.680Z,6.45
2019-03-24T07:27:35.870Z,6.49
2019-03-24T07:30:04.808Z,6.75
2019-03-24T07:32:33.699Z,6.87
2019-03-24T07:35:02.047Z,6.95
2019-03-24T07:37:30.993Z,7.03
2019-03-24T07:39:58.932Z,7.25
2019-03-24T07:42:28.948Z,7.43
2019-03-24T07:44:56.938Z,7.52
2019-03-24T07:47:24.937Z,7.67
2019-03-24T07:49:52.869Z,7.87
2019-03-24T07:52:21.826Z,7.95
2019-03-24T07:54:50.269Z,8.13
2019-03-24T07:57:18.142Z,8.31
2019-03-24T07:59:46.584Z,8.49
2019-03-24T08:02:14.607Z,8.70
2019-03-24T08:04:45.174Z,8.72
2019-03-24T08:07:13.293Z,8.80
2019-03-24T08:09:41.017Z,9.15
2019-03-24T08:12:12.247Z,9.18
2019-03-24T08:14:41.190Z,9.25
2019-03-24T08:17:09.648Z,9.29
2019-03-24T08:19:37.951Z,9.45
2019-03-24T08:22:06.550Z,9.33
2019-03-24T08:24:34.722Z,9.69
2019-03-24T08:27:02.557Z,9.91
2019-03-24T08:29:31.070Z,10.08
2019-03-24T08:31:59.893Z,10.27
2019-03-24T08:34:28.179Z,10.37
2019-03-24T08:36:56.077Z,10.54
2019-03-24T08:39:24.519Z,10.39
2019-03-24T08:41:52.707Z,10.80
2019-03-24T08:44:21.323Z,10.92
2019-03-24T08:46:49.892Z,10.85
2019-03-24T08:49:21.130Z,11.21
2019-03-24T08:51:51.487Z,11.04
2019-03-24T08:54:21.260Z,11.28
2019-03-24T08:56:51.483Z,11.50
2019-03-24T08:59:19.544Z,11.68
2019-03-24T09:01:48.573Z,11.67
2019-03-24T09:04:17.021Z,11.55
2019-03-24T09:06:45.219Z,11.71
2019-03-24T09:09:13.301Z,11.87
2019-03-24T09:11:41.393Z,12.14
2019-03-24T09:14:09.690Z,12.27
2019-03-24T09:16:37.742Z,12.38
2019-03-24T09:19:05.651Z,12.45
2019-03-24T09:21:36.325Z,12.62
2019-03-24T09:24:03.742Z,12.43
2019-03-24T09:26:31.894Z,12.41
2019-03-24T09:29:00.026Z,12.81
2019-03-24T09:31:28.672Z,12.80
2019-03-24T09:33:56.820Z,13.03
2019-03-24T09:36:25.812Z,13.03
2019-03-24T09:38:54.625Z,13.11
2019-03-24T09:41:23.098Z,12.95
2019-03-24T09:43:51.347Z,13.12
2019-03-24T09:46:19.447Z,13.10
2019-03-24T09:48:48.133Z,13.41
2019-03-24T09:51:16.840Z,13.54
2019-03-24T09:53:47.043Z,13.58
2019-03-24T09:56:16.456Z,13.63
2019-03-24T09:58:44.360Z,13.65
2019-03-24T10:01:12.478Z,13.70
2019-03-24T10:03:40.639Z,13.63
2019-03-24T10:06:08.404Z,13.86
2019-03-24T10:08:46.811Z,14.15
2019-03-24T10:11:06.744Z,14.14
2019-03-24T10:13:43.253Z,14.44
2019-03-24T10:16:11.696Z,14.55
2019-03-24T10:18:40.350Z,14.76
2019-03-24T10:21:10.179Z,14.57
2019-03-24T10:23:38.464Z,14.50
2019-03-24T10:26:07.583Z,14.47
2019-03-24T10:28:36.345Z,14.41
2019-03-24T10:31:04.812Z,14.55
2019-03-24T10:33:33.332Z,14.74
2019-03-24T10:36:01.349Z,14.93
2019-03-24T10:38:29.853Z,14.91
2019-03-24T10:40:58.198Z,15.15
2019-03-24T10:43:27.217Z,15.52
2019-03-24T10:45:55.978Z,15.30
2019-03-24T10:48:33.386Z,15.60
2019-03-24T10:50:54.789Z,15.63
2019-03-24T10:53:23.630Z,15.51
2019-03-24T10:55:51.552Z,15.89
2019-03-24T10:58:19.647Z,15.68
2019-03-24T11:00:48.048Z,16.05
2019-03-24T11:03:16.123Z,15.90
2019-03-24T11:05:43.976Z,15.85
2019-03-24T11:08:12.937Z,15.98
2019-03-24T11:10:40.760Z,16.28
2019-03-24T11:13:08.789Z,16.34
2019-03-24T11:15:36.889Z,16.34
2019-03-24T11:18:06.072Z,16.44
2019-03-24T11:20:35.234Z,16.30
2019-03-24T11:23:03.134Z,16.09
2019-03-24T11:25:31.883Z,16.41
2019-03-24T11:28:00.008Z,16.18
2019-03-24T11:30:30.332Z,16.49
2019-03-24T11:32:59.547Z,16.44
2019-03-24T11:35:27.675Z,16.46
2019-03-24T11:37:56.172Z,16.20
2019-03-24T11:40:24.394Z,16.30
2019-03-24T11:42:55.291Z,16.50
2019-03-24T11:45:24.106Z,17.06
2019-03-24T11:47:52.146Z,16.86
2019-03-24T11:50:20.622Z,16.79
2019-03-24T11:52:48.688Z,16.99
2019-03-24T11:55:17.271Z,17.32
2019-03-24T11:57:45.447Z,17.13
2019-03-24T12:00:13.464Z,16.88
2019-03-24T12:02:41.442Z,16.91
2019-03-24T12:05:09.683Z,17.17
2019-03-24T12:07:37.465Z,17.30
2019-03-24T12:10:06.756Z,16.94
2019-03-24T12:12:35.113Z,17.18
2019-03-24T12:15:05.590Z,17.33
2019-03-24T12:17:34.140Z,17.27
2019-03-24T12:20:02.451Z,17.24
2019-03-24T12:22:30.567Z,17.01
2019-03-24T12:24:58.523Z,17.69
2019-03-24T12:27:26.871Z,17.54
2019-03-24T12:29:55.004Z,17.81
2019-03-24T12:32:23.210Z,17.81
2019-03-24T12:34:51.408Z,17.69
2019-03-24T12:37:19.432Z,17.61
2019-03-24T12:39:47.877Z,17.57
2019-03-24T12:42:16.608Z,17.40
2019-03-24T12:44:45.567Z,17.59
2019-03-24T12:47:13.898Z,17.63
2019-03-24T12:49:51.499Z,17.52
2019-03-24T12:52:20.054Z,17.61
2019-03-24T12:54:48.408Z,17.82
2019-03-24T12:57:18.390Z,17.66
2019-03-24T12:59:47.177Z,17.75
2019-03-24T13:02:15.217Z,17.73
2019-03-24T13:04:42.984Z,17.59
2019-03-24T13:07:11.100Z,17.62
2019-03-24T13:09:39.167Z,17.70
2019-03-24T13:12:07.616Z,17.70
2019-03-24T13:14:35.834Z,18.22
2019-03-24T13:17:04.314Z,18.29
2019-03-24T13:19:35.882Z,17.82
2019-03-24T13:22:02.884Z,18.23
2019-03-24T13:24:30.928Z,17.98
2019-03-24T13:26:59.084Z,17.90
2019-03-24T13:29:27.287Z,18.24
2019-03-24T13:31:57.395Z,18.68
2019-03-24T13:34:28.959Z,18.52
2019-03-24T13:36:57.060Z,18.17
2019-03-24T13:39:24.824Z,18.28
2019-03-24T13:41:53.378Z,18.16
2019-03-24T13:44:21.839Z,18.10
2019-03-24T13:46:49.941Z,18.15
2019-03-24T13:49:18.004Z,18.30
2019-03-24T13:51:46.217Z,18.24
2019-03-24T13:54:15.334Z,18.20
2019-03-24T13:56:43.375Z,18.59
2019-03-24T13:59:11.103Z,18.37
2019-03-24T14:01:40.115Z,18.02
2019-03-24T14:04:08.808Z,18.49
2019-03-24T14:06:37.444Z,17.85
2019-03-24T14:09:08.090Z,17.84
2019-03-24T14:11:38.096Z,18.07
2019-03-24T14:14:07.860Z,18.27
2019-03-24T14:16:37.284Z,18.02
2019-03-24T14:19:05.288Z,18.22
2019-03-24T14:21:33.376Z,18.06
2019-03-24T14:24:01.323Z,17.81
2019-03-24T14:26:29.104Z,18.16
2019-03-24T14:28:57.565Z,18.06
2019-03-24T14:31:26.734Z,18.34
2019-03-24T14:33:54.796Z,18.17
2019-03-24T14:36:23.233Z,18.38
2019-03-24T14:38:51.388Z,18.23
2019-03-24T14:41:20.117Z,18.10
2019-03-24T14:43:48.255Z,18.32
2019-03-24T14:46:16.374Z,18.21
2019-03-24T14:48:45.199Z,18.29
2019-03-24T14:51:14.155Z,18.18
2019-03-24T14:53:42.168Z,18.06
2019-03-24T14:56:12.509Z,18.17
2019-03-24T14:58:40.830Z,18.09
2019-03-24T15:01:08.602Z,18.21
2019-03-24T15:03:37.946Z,18.22
2019-03-24T15:06:06.540Z,18.23
2019-03-24T15:08:35.917Z,18.13
2019-03-24T15:11:05.364Z,18.21
2019-03-24T15:13:34.564Z,18.12
2019-03-24T15:16:04.523Z,18.12
2019-03-24T15:18:32.715Z,18.17
2019-03-24T15:21:05.499Z,17.90
2019-03-24T15:23:31.354Z,18.02
2019-03-24T15:26:11.998Z,17.77
2019-03-24T15:28:39.366Z,17.77
2019-03-24T15:31:07.631Z,17.58
2019-03-24T15:33:35.400Z,17.69
2019-03-24T15:36:03.775Z,17.30
2019-03-24T15:38:32.532Z,17.55
2019-03-24T15:41:00.744Z,17.46
2019-03-24T15:43:28.802Z,17.39
2019-03-24T15:45:57.522Z,17.43
2019-03-24T15:48:25.546Z,17.15
2019-03-24T15:50:54.076Z,17.06
2019-03-24T15:53:22.206Z,17.06
2019-03-24T15:55:51.354Z,17.05
2019-03-24T15:58:19.370Z,17.13
2019-03-24T16:00:48.357Z,17.08
2019-03-24T16:03:16.843Z,17.01
2019-03-24T16:05:44.569Z,17.03
2019-03-24T16:08:12.915Z,16.76
2019-03-24T16:10:42.146Z,16.73
2019-03-24T16:13:11.700Z,16.76
2019-03-24T16:15:40.673Z,16.68
2019-03-24T16:18:09.426Z,16.61
2019-03-24T16:20:38.127Z,16.49
2019-03-24T16:23:07.284Z,16.35
2019-03-24T16:25:35.317Z,16.28
2019-03-24T16:28:06.426Z,16.12
2019-03-24T16:30:35.183Z,16.07
2019-03-24T16:33:03.003Z,15.98
2019-03-24T16:35:31.197Z,15.87
2019-03-24T16:37:59.293Z,15.69
2019-03-24T16:40:27.648Z,15.50
2019-03-24T16:42:56.612Z,15.42
2019-03-24T16:45:24.690Z,15.19
2019-03-24T16:47:52.617Z,15.04
2019-03-24T16:50:20.666Z,14.96
2019-03-24T16:52:49.149Z,14.88
2019-03-24T16:55:17.790Z,14.92
2019-03-24T16:57:46.666Z,14.84
2019-03-24T17:00:14.711Z,14.67
2019-03-24T17:02:42.541Z,14.47
2019-03-24T17:05:10.564Z,14.31
2019-03-24T17:07:38.585Z,14.15
2019-03-24T17:10:08.305Z,13.95
2019-03-24T17:12:36.575Z,13.83
2019-03-24T17:15:05.017Z,13.73
2019-03-24T17:17:33.896Z,13.57
2019-03-24T17:20:03.261Z,13.41
2019-03-24T17:22:31.781Z,13.40
2019-03-24T17:25:00.400Z,13.32
2019-03-24T17:27:28.691Z,13.51
2019-03-24T17:29:56.931Z,13.53
2019-03-24T17:32:25.154Z,13.61
2019-03-24T17:34:53.181Z,13.51
2019-03-24T17:37:21.720Z,13.45
2019-03-24T17:39:50.229Z,13.49
2019-03-24T17:42:17.995Z,13.45
2019-03-24T17:44:46.596Z,13.47
2019-03-24T17:47:16.348Z,13.41
2019-03-24T17:49:45.561Z,13.40
2019-03-24T17:52:13.793Z,13.26
2019-03-24T17:54:41.959Z,13.17
2019-03-24T17:57:10.198Z,13.14
2019-03-24T17:59:38.303Z,13.11
2019-03-24T18:02:14.158Z,13.06
2019-03-24T18:04:36.610Z,12.95
2019-03-24T18:07:06.425Z,12.85
2019-03-24T18:09:34.561Z,12.81
2019-03-24T18:12:05.019Z,12.69
2019-03-24T18:14:33.483Z,12.51
2019-03-24T18:17:01.370Z,12.48
2019-03-24T18:19:29.708Z,12.33
2019-03-24T18:21:59.049Z,12.32
2019-03-24T18:24:27.443Z,12.33
2019-03-24T18:26:56.390Z,12.14
2019-03-24T18:29:27.784Z,12.04
2019-03-24T18:31:55.536Z,12.04
2019-03-24T18:34:24.462Z,11.92
2019-03-24T18:36:52.659Z,11.94
2019-03-24T18:39:21.430Z,11.86
2019-03-24T18:41:49.840Z,11.76
2019-03-24T18:44:19.185Z,11.83
2019-03-24T18:46:46.970Z,11.73
2019-03-24T18:49:15.503Z,11.71
2019-03-24T18:51:44.397Z,11.72
2019-03-24T18:54:12.569Z,11.70
2019-03-24T18:56:40.797Z,11.61
2019-03-24T18:59:09.148Z,11.57
2019-03-24T19:01:37.108Z,11.54
2019-03-24T19:04:05.170Z,11.57
2019-03-24T19:06:35.196Z,11.51
2019-03-24T19:09:05.535Z,11.47
2019-03-24T19:11:34.252Z,11.39
2019-03-24T19:14:06.814Z,11.28
2019-03-24T19:16:35.603Z,11.16
2019-03-24T19:19:04.235Z,11.19
2019-03-24T19:21:32.303Z,11.07
2019-03-24T19:24:00.803Z,11.10
2019-03-24T19:26:29.254Z,11.09
2019-03-24T19:28:59.091Z,10.98
2019-03-24T19:31:27.906Z,10.96
2019-03-24T19:33:56.050Z,10.85
2019-03-24T19:36:24.738Z,10.83
2019-03-24T19:38:54.560Z,10.96
2019-03-24T19:41:22.748Z,10.92
2019-03-24T19:43:51.187Z,10.88
2019-03-24T19:46:21.103Z,10.90
2019-03-24T19:48:49.287Z,10.86
2019-03-24T19:51:17.471Z,10.84
2019-03-24T19:53:45.698Z,10.83
2019-03-24T19:56:14.216Z,10.78
2019-03-24T19:58:42.558Z,10.67
2019-03-24T20:01:11.388Z,10.60
2019-03-24T20:03:40.367Z,10.54
2019-03-24T20:06:08.941Z,10.50
2019-03-24T20:08:37.069Z,10.47
2019-03-24T20:11:05.079Z,10.36
2019-03-24T20:13:32.967Z,10.23
2019-03-24T20:16:01.974Z,10.23
2019-03-24T20:18:30.730Z,10.19
2019-03-24T20:20:58.814Z,10.18
2019-03-24T20:23:27.273Z,10.04
2019-03-24T20:25:55.314Z,10.00
2019-03-24T20:28:24.409Z,9.96
2019-03-24T20:30:52.631Z,9.96
2019-03-24T20:33:20.856Z,10.03
2019-03-24T20:35:49.543Z,9.98
2019-03-24T20:38:17.628Z,9.96
2019-03-24T20:40:45.742Z,9.97
2019-03-24T20:43:15.563Z,9.93
2019-03-24T20:45:44.857Z,9.88
2019-03-24T20:48:14.185Z,9.75
2019-03-24T20:50:44.355Z,9.65
2019-03-24T20:53:18.320Z,9.48
2019-03-24T20:55:45.129Z,9.38
2019-03-24T20:58:14.789Z,9.30
2019-03-24T21:00:42.881Z,9.20
2019-03-24T21:03:10.957Z,8.99
2019-03-24T21:05:40.481Z,8.94
2019-03-24T21:08:09.952Z,8.93
2019-03-24T21:10:37.786Z,8.68
2019-03-24T21:13:06.540Z,8.52
2019-03-24T21:15:34.708Z,8.31
2019-03-24T21:18:04.228Z,8.06
2019-03-24T21:20:32.444Z,7.88
2019-03-24T21:23:00.431Z,7.99
2019-03-24T21:25:29.044Z,7.91
2019-03-24T21:27:58.203Z,7.74
2019-03-24T21:30:37.120Z,7.85
2019-03-24T21:33:05.431Z,7.61
2019-03-24T21:35:33.907Z,7.46
2019-03-24T21:38:05.092Z,7.35
2019-03-24T21:40:33.235Z,7.43
2019-03-24T21:43:01.295Z,7.31
2019-03-24T21:45:30.547Z,7.36
2019-03-24T21:47:58.813Z,7.31
2019-03-24T21:50:26.837Z,7.27
2019-03-24T21:52:55.261Z,7.31
2019-03-24T21:55:23.614Z,7.26
2019-03-24T21:57:57.362Z,7.15
2019-03-24T22:00:31.407Z,7.16
2019-03-24T22:02:59.455Z,7.06
2019-03-24T22:05:27.808Z,6.94
2019-03-24T22:07:55.811Z,6.79
2019-03-24T22:10:23.903Z,6.86
2019-03-24T22:12:52.979Z,6.74
2019-03-24T22:15:21.143Z,6.76
2019-03-24T22:17:49.536Z,6.66
2019-03-24T22:20:17.642Z,6.60
2019-03-24T22:22:47.106Z,6.63
2019-03-24T22:25:15.343Z,6.86
2019-03-24T22:27:44.218Z,6.79
2019-03-24T22:30:12.718Z,6.95
2019-03-24T22:32:40.897Z,6.63
2019-03-24T22:35:09.044Z,6.46
2019-03-24T22:37:37.471Z,6.52
2019-03-24T22:40:07.085Z,6.54
2019-03-24T22:42:34.801Z,6.63
2019-03-24T22:45:03.073Z,6.69
2019-03-24T22:47:31.012Z,6.72
2019-03-24T22:49:59.706Z,6.57
2019-03-24T22:52:27.456Z,6.51
2019-03-24T22:54:56.167Z,6.43
2019-03-24T22:57:25.211Z,6.38
2019-03-24T22:59:53.225Z,6.20
2019-03-24T23:02:22.339Z,6.17
2019-03-24T23:04:50.673Z,6.09
2019-03-24T23:07:19.120Z,6.10
2019-03-24T23:09:47.134Z,6.17
2019-03-24T23:12:15.630Z,6.23
2019-03-24T23:14:46.358Z,6.29
2019-03-24T23:17:17.520Z,6.37
2019-03-24T23:19:47.095Z,6.35
2019-03-24T23:22:15.411Z,6.29
2019-03-24T23:24:43.452Z,6.32
2019-03-24T23:27:12.384Z,6.31
2019-03-24T23:29:40.724Z,6.25
2019-03-24T23:32:10.933Z,6.31
2019-03-24T23:34:39.093Z,6.30
2019-03-24T23:37:07.384Z,6.37
2019-03-24T23:39:35.436Z,6.32
2019-03-24T23:42:03.843Z,6.35
2019-03-24T23:44:31.978Z,6.41
2019-03-24T23:47:00.011Z,6.47
2019-03-24T23:49:27.921Z,6.50
2019-03-24T23:51:56.558Z,6.48
2019-03-24T23:54:27.244Z,6.49
2019-03-24T23:56:54.213Z,6.48
2019-03-24T23:59:22.344Z,6.55
